createdAt,value
2022-12-11T00:01:41.653Z,25.80
2022-12-11T00:04:10.202Z,25.80
2022-12-11T00:06:38.468Z,25.80
2022-12-11T00:09:06.856Z,25.70
2022-12-11T00:11:35.256Z,25.70
2022-12-11T00:14:04.223Z,25.60
2022-12-11T00:16:32.452Z,25.60
2022-12-11T00:19:00.878Z,25.60
2022-12-11T00:21:29.186Z,25.60
2022-12-11T00:23:57.841Z,25.60
2022-12-11T00:26:27.586Z,25.60
2022-12-11T00:28:57.759Z,25.60
2022-12-11T00:31:26.302Z,25.60
2022-12-11T00:33:55.625Z,25.50
2022-12-11T00:36:26.736Z,25.40
2022-12-11T00:38:55.852Z,25.40
2022-12-11T00:41:24.172Z,25.50
2022-12-11T00:43:52.595Z,25.50
2022-12-11T00:46:21.708Z,25.50
2022-12-11T00:48:49.973Z,25.60
2022-12-11T00:51:19.124Z,25.60
2022-12-11T00:53:47.687Z,25.60
2022-12-11T00:56:24.991Z,25.70
2022-12-11T00:58:53.647Z,25.70
2022-12-11T01:01:24.537Z,25.70
2022-12-11T01:03:54.019Z,25.70
2022-12-11T01:06:25.216Z,25.70
2022-12-11T01:08:55.163Z,25.70
2022-12-11T01:11:23.357Z,25.70
2022-12-11T01:13:51.530Z,25.60
2022-12-11T01:16:19.911Z,25.60
2022-12-11T01:18:48.311Z,25.60
2022-12-11T01:21:16.497Z,25.60
2022-12-11T01:23:44.714Z,25.60
2022-12-11T01:26:15.835Z,25.60
2022-12-11T01:28:45.239Z,25.60
2022-12-11T01:31:15.130Z,25.60
2022-12-11T01:33:43.713Z,25.50
2022-12-11T01:36:18.005Z,25.50
2022-12-11T01:38:47.435Z,25.40
2022-12-11T01:41:17.056Z,25.40
2022-12-11T01:43:58.402Z,25.40
2022-12-11T01:46:27.843Z,25.30
2022-12-11T01:48:56.611Z,25.30
2022-12-11T01:51:25.753Z,25.30
2022-12-11T01:54:01.523Z,25.40
2022-12-11T01:56:31.896Z,25.40
2022-12-11T01:59:04.089Z,25.40
2022-12-11T02:01:35.348Z,25.40
2022-12-11T02:04:04.172Z,25.40
2022-12-11T02:06:41.534Z,25.40
2022-12-11T02:09:19.004Z,25.40
2022-12-11T02:12:21.003Z,25.40
2022-12-11T02:15:04.423Z,25.30
2022-12-11T02:18:26.891Z,25.30
2022-12-11T02:21:11.694Z,25.30
2022-12-11T02:24:06.944Z,25.30
2022-12-11T02:26:55.533Z,25.30
2022-12-11T02:29:52.061Z,25.20
2022-12-11T02:32:59.644Z,25.20
2022-12-11T02:35:38.576Z,25.10
2022-12-11T02:38:15.791Z,25.00
2022-12-11T02:40:45.504Z,25.00
2022-12-11T02:43:17.021Z,25.00
2022-12-11T02:45:47.572Z,25.00
2022-12-11T02:48:17.692Z,25.00
2022-12-11T02:50:53.061Z,25.00
2022-12-11T02:53:24.830Z,24.90
2022-12-11T02:56:27.285Z,24.80
2022-12-11T02:59:01.394Z,24.80
2022-12-11T03:01:30.445Z,24.80
2022-12-11T03:03:59.243Z,24.80
2022-12-11T03:06:42.267Z,24.80
2022-12-11T03:09:10.928Z,24.90
2022-12-11T03:11:39.234Z,24.90
2022-12-11T03:14:08.971Z,24.90
2022-12-11T03:16:52.668Z,24.90
2022-12-11T03:19:40.579Z,24.90
2022-12-11T03:22:34.931Z,24.90
2022-12-11T03:25:08.116Z,25.00
2022-12-11T03:27:48.889Z,25.00
2022-12-11T03:30:22.155Z,25.10
2022-12-11T03:32:56.678Z,25.10
2022-12-11T03:35:36.309Z,25.10
2022-12-11T03:38:12.142Z,25.10
2022-12-11T03:40:42.152Z,25.10
2022-12-11T03:43:12.516Z,25.10
2022-12-11T03:45:42.481Z,25.20
2022-12-11T03:48:12.111Z,25.20
2022-12-11T03:50:42.247Z,25.20
2022-12-11T03:53:12.011Z,25.20
2022-12-11T03:55:41.225Z,25.20
2022-12-11T03:58:09.381Z,25.20
2022-12-11T04:00:38.380Z,25.20
2022-12-11T04:03:12.621Z,25.10
2022-12-11T04:05:47.242Z,25.20
2022-12-11T04:08:16.467Z,25.20
2022-12-11T04:10:44.792Z,25.20
2022-12-11T04:13:14.587Z,25.30
2022-12-11T04:15:42.703Z,25.30
2022-12-11T04:18:11.418Z,25.20
2022-12-11T04:20:40.183Z,25.20
2022-12-11T04:23:19.393Z,25.10
2022-12-11T04:25:47.711Z,25.20
2022-12-11T04:28:16.506Z,25.10
2022-12-11T04:30:50.195Z,25.10
2022-12-11T04:33:18.487Z,25.10
2022-12-11T04:35:47.163Z,25.10
2022-12-11T04:38:15.439Z,25.10
2022-12-11T04:40:43.611Z,25.10
2022-12-11T04:43:11.923Z,25.10
2022-12-11T04:45:39.957Z,25.10
2022-12-11T04:48:08.236Z,25.10
2022-12-11T04:50:36.538Z,25.00
2022-12-11T04:53:04.622Z,25.00
2022-12-11T04:55:32.983Z,25.00
2022-12-11T04:58:01.330Z,24.90
2022-12-11T05:00:29.673Z,24.90
2022-12-11T05:02:57.848Z,24.90
2022-12-11T05:05:26.279Z,24.90
2022-12-11T05:07:54.459Z,24.90
2022-12-11T05:10:22.598Z,24.90
2022-12-11T05:12:50.895Z,24.90
2022-12-11T05:15:19.281Z,24.90
2022-12-11T05:17:47.496Z,24.90
2022-12-11T05:20:16.059Z,24.80
2022-12-11T05:22:44.340Z,24.80
2022-12-11T05:25:12.727Z,24.80
2022-12-11T05:27:41.407Z,24.80
2022-12-11T05:30:10.115Z,24.90
2022-12-11T05:32:38.420Z,24.80
2022-12-11T05:35:07.052Z,24.70
2022-12-11T05:37:36.477Z,24.70
2022-12-11T05:40:05.611Z,24.70
2022-12-11T05:42:35.251Z,24.70
2022-12-11T05:47:46.388Z,24.70
2022-12-11T05:50:14.534Z,24.70
2022-12-11T05:52:42.872Z,24.70
2022-12-11T05:55:11.326Z,24.70
2022-12-11T05:57:39.635Z,24.70
2022-12-11T06:00:08.716Z,24.70
2022-12-11T06:02:37.762Z,24.70
2022-12-11T06:05:06.416Z,24.70
2022-12-11T06:07:34.565Z,24.60
2022-12-11T06:10:02.971Z,24.70
2022-12-11T06:12:31.593Z,24.70
2022-12-11T06:14:59.814Z,24.80
2022-12-11T06:17:28.201Z,24.80
2022-12-11T06:19:56.323Z,24.80
2022-12-11T06:22:24.490Z,24.90
2022-12-11T06:24:52.817Z,24.90
2022-12-11T06:27:21.030Z,24.90
2022-12-11T06:29:50.196Z,24.90
2022-12-11T06:32:19.135Z,24.90
2022-12-11T06:34:47.385Z,24.80
2022-12-11T21:11:58.470Z,27.80
2022-12-11T21:14:27.051Z,27.80
2022-12-11T21:16:55.597Z,27.80
2022-12-11T21:19:23.983Z,27.80
2022-12-11T21:21:52.672Z,27.70
2022-12-11T21:24:24.985Z,27.70
2022-12-11T21:26:54.599Z,27.70
2022-12-11T21:29:24.629Z,27.70
2022-12-11T21:31:53.631Z,27.80
2022-12-11T21:34:25.281Z,27.80
2022-12-11T21:36:53.981Z,27.70
2022-12-11T21:39:22.704Z,27.80
2022-12-11T21:41:50.867Z,27.70
2022-12-11T21:47:07.616Z,27.70
2022-12-11T21:49:37.699Z,27.70
2022-12-11T21:52:06.169Z,27.70
2022-12-11T21:54:34.477Z,27.70
2022-12-11T21:57:02.911Z,27.70
2022-12-11T21:59:31.291Z,27.70
2022-12-11T22:02:00.982Z,27.70
2022-12-11T22:04:29.352Z,27.70
2022-12-11T22:06:57.558Z,27.70
2022-12-11T22:09:26.001Z,27.60
2022-12-11T22:11:58.383Z,27.60
2022-12-11T22:14:27.979Z,27.60
2022-12-11T22:16:56.108Z,27.60
2022-12-11T22:19:27.829Z,27.60
2022-12-11T22:22:00.723Z,27.60
2022-12-11T22:24:29.081Z,27.50
2022-12-11T22:26:57.493Z,27.60
2022-12-11T22:29:25.852Z,27.60
2022-12-11T22:31:54.090Z,27.60
2022-12-11T22:34:22.756Z,27.70
2022-12-11T22:36:51.221Z,27.70
2022-12-11T22:39:19.368Z,27.70
2022-12-11T22:41:47.813Z,27.60
2022-12-11T22:44:18.563Z,27.60
2022-12-11T22:46:50.248Z,27.70
2022-12-11T22:49:19.769Z,27.60
2022-12-11T22:51:48.470Z,27.60
2022-12-11T22:54:16.812Z,27.60
2022-12-11T22:56:45.164Z,27.50
2022-12-11T22:59:13.503Z,27.50
2022-12-11T23:01:42.146Z,27.50
2022-12-11T23:04:10.543Z,27.40
2022-12-11T23:06:38.813Z,27.40
2022-12-11T23:09:07.724Z,27.40
2022-12-11T23:11:38.384Z,27.40
2022-12-11T23:14:09.346Z,27.40
2022-12-11T23:16:38.053Z,27.40
2022-12-11T23:19:07.191Z,27.40
2022-12-11T23:21:36.127Z,27.40
2022-12-11T23:24:05.350Z,27.40
2022-12-11T23:26:33.948Z,27.40
2022-12-11T23:29:02.822Z,27.40
2022-12-11T23:31:31.488Z,27.40
2022-12-11T23:34:00.096Z,27.30
2022-12-11T23:36:29.131Z,27.40
2022-12-11T23:38:57.377Z,27.30
2022-12-11T23:41:26.479Z,27.30
2022-12-11T23:43:54.733Z,27.30
2022-12-11T23:46:24.889Z,27.30
2022-12-11T23:48:54.184Z,27.30
2022-12-11T23:51:24.189Z,27.30
2022-12-11T23:53:53.091Z,27.30
2022-12-11T23:56:24.520Z,27.20
2022-12-11T23:58:54.021Z,27.30
